KMTC/MTC METAR and TAF weather

Enter ICAO airport designator
Station Type Date Time Source
KMTC METAR 2019/12/07 04:56 UTC NOAA

KMTC 070456Z AUTO 32007KT 10SM CLR M03/M07 A3034 RMK AO2 SLP286 T10281075 400501028


Station Type Date Time Source
KMTC Decoded METAR 2019/12/07 04:56 UTC NOAA

Selfridge Air National Guard Base, MI, United States (KMTC) 42-37N 082-50W
Dec 06, 2019 - 11:56 PM EST / 2019.12.07 0456 UTC
Wind: from the NW (320 degrees) at 8 MPH (7 KT):0
Visibility: 10 mile(s):0
Sky conditions: clear
Temperature: 27.0 F (-2.8 C)
Windchill: 19 F (-7 C):1
Dew Point: 18.5 F (-7.5 C)
Relative Humidity: 70%
Pressure (altimeter): 30.34 in. Hg (1027 hPa)
ob: KMTC 070456Z AUTO 32007KT 10SM CLR M03/M07 A3034 RMK AO2 SLP286 T10281075 400501028
cycle: 5

Station Type Date Time Source
KMTC TAF 2019/12/07 01:15 UTC NOAA

TAF KMTC 070100Z 0701/0807 32006KT 9999 BKN030 620304 QNH3028INS
BECMG 0706/0707 VRB06KT 9999 SCT020 BKN080 QNH3035INS
BECMG 0715/0716 20006KT 9999 SCT050 BKN090 QNH3021INS TX00/0721Z TNM03/0711Z LAST NO
AMDS AFT 0704 NEXT 0709

Example: see airport list